Pembroke Pines, Florida
Current Conditions -  °F | °C
As of 8:53 AM on Saturday 25 Oct 2014 (Local Time) from KHWO Reporting Station
Clear Clear  
Wind Chill: 71°   Ceiling: Unl
Heat Index: 71°   Visibility: 10mi
Dew Point: 62°   Wind: 10mph
Humidity: 73%   Direction: 340°NNW
Pressure: 29.94"   Gusts: NA
Location:  26.01°N, 80.28°W
Report Text: KHWO 251253Z 34009KT 10SM CLR 22/17 A2994 RMK AO2 SLP137 T02170167
Loading
Personal Weather Stations






























Interactive Weather Map
Tropical Storm Tracking
New forecast layout! Learn more

10-Day Weather Forecast

Advertisements
Track Severe Weather on mobile